Time;durP1;ratioP1;P1;durP2;ratioP2;P2;SDS_P1;SDS_P2;PMS_P1;PMS_P2;Temp;Humidity;BMP_temperature;BMP_pressure;BME280_temperature;BME280_humidity;BME280_pressure;Samples;Min_cycle;Max_cycle;Signal;HPM_P1;HPM_P2
2021/08/05 00:00:49;;;;;;;7.60;3.65;;;15.60;91.10;;;;;;5064402;28;20021;-68
2021/08/05 00:03:16;;;;;;;8.68;3.22;;;15.60;91.20;;;;;;5062341;28;20023;-67
2021/08/05 00:05:42;;;;;;;6.35;3.42;;;15.60;91.30;;;;;;5060445;28;20532;-68
2021/08/05 00:08:09;;;;;;;6.30;3.13;;;15.60;91.40;;;;;;5060773;28;20396;-68
2021/08/05 00:10:36;;;;;;;8.90;3.47;;;15.60;91.40;;;;;;5062457;28;20016;-68
2021/08/05 00:13:02;;;;;;;11.25;4.78;;;15.60;91.50;;;;;;5060954;28;20036;-68
2021/08/05 00:15:29;;;;;;;5.18;3.58;;;15.70;91.60;;;;;;5064255;28;20476;-68
2021/08/05 00:17:55;;;;;;;7.45;4.13;;;15.70;91.60;;;;;;5059847;28;20757;-68
2021/08/05 00:20:42;;;;;;;7.45;3.55;;;15.70;91.60;;;;;;5063530;28;20503;-68
2021/08/05 00:23:09;;;;;;;9.10;3.97;;;15.70;91.60;;;;;;5042926;28;20028;-68
2021/08/05 00:25:35;;;;;;;8.13;3.88;;;15.70;91.70;;;;;;5063343;28;20031;-68
2021/08/05 00:28:02;;;;;;;8.88;3.85;;;15.80;91.70;;;;;;5060401;28;20026;-67
2021/08/05 00:30:29;;;;;;;6.80;3.50;;;15.80;91.70;;;;;;5060471;28;20357;-68
2021/08/05 00:32:56;;;;;;;7.72;3.25;;;15.80;91.80;;;;;;5061985;28;20048;-68
2021/08/05 00:35:23;;;;;;;5.60;3.20;;;15.80;91.90;;;;;;5059567;28;20036;-68
2021/08/05 00:37:49;;;;;;;10.98;2.65;;;15.80;91.90;;;;;;5060962;28;20036;-68
2021/08/05 00:40:16;;;;;;;9.45;2.80;;;15.80;92.00;;;;;;5060206;28;20013;-68
2021/08/05 00:42:42;;;;;;;5.95;2.83;;;15.90;92.10;;;;;;5060228;28;20013;-68
2021/08/05 00:45:09;;;;;;;6.20;2.70;;;15.90;92.10;;;;;;5064355;28;20020;-68
2021/08/05 00:47:35;;;;;;;7.20;3.58;;;15.90;92.10;;;;;;5065500;28;20035;-68
2021/08/05 00:50:02;;;;;;;6.55;2.83;;;15.90;92.10;;;;;;5059914;28;20029;-68
2021/08/05 00:52:29;;;;;;;7.18;2.95;;;15.90;92.10;;;;;;5064524;28;20055;-68
2021/08/05 00:54:55;;;;;;;6.20;3.15;;;15.90;92.10;;;;;;5065797;28;20031;-68
2021/08/05 00:57:22;;;;;;;8.13;3.33;;;16.00;92.10;;;;;;5064764;28;20056;-68
2021/08/05 00:59:48;;;;;;;9.45;3.63;;;16.00;92.10;;;;;;5062075;28;20056;-68
2021/08/05 01:02:22;;;;;;;10.18;3.20;;;16.00;92.10;;;;;;5045556;28;20380;-67
2021/08/05 01:04:54;;;;;;;6.22;3.55;;;16.00;92.20;;;;;;5060330;28;20053;-68
2021/08/05 01:07:29;;;;;;;4.65;2.25;;;16.00;92.20;;;;;;5065697;28;20498;-68
2021/08/05 01:10:26;;;;;;;9.68;2.85;;;16.00;92.20;;;;;;5063528;28;20021;-68
2021/08/05 01:13:20;;;;;;;6.72;2.83;;;16.10;92.20;;;;;;5065370;28;20119;-68
2021/08/05 01:15:50;;;;;;;7.40;3.50;;;16.10;92.20;;;;;;5065033;28;20032;-68
2021/08/05 01:18:33;;;;;;;9.85;3.78;;;16.00;92.20;;;;;;5064895;28;20029;-68
2021/08/05 01:21:15;;;;;;;9.63;3.70;;;16.10;92.30;;;;;;5066886;28;20025;-68
2021/08/05 01:23:50;;;;;;;9.68;5.28;;;16.10;92.30;;;;;;5063704;28;20029;-68
2021/08/05 01:27:04;;;;;;;5.13;3.55;;;16.10;92.40;;;;;;5067071;28;20436;-68
2021/08/05 01:29:34;;;;;;;7.88;4.05;;;16.10;92.40;;;;;;5021421;28;20086;-68
2021/08/05 01:32:03;;;;;;;6.72;3.88;;;16.10;92.50;;;;;;5065763;28;20028;-68
2021/08/05 01:34:32;;;;;;;6.18;4.55;;;16.10;92.80;;;;;;5063661;28;20027;-67
2021/08/05 01:36:59;;;;;;;6.18;3.50;;;16.10;92.60;;;;;;5063690;28;20048;-67
2021/08/05 01:39:27;;;;;;;8.10;3.53;;;16.10;92.70;;;;;;5067256;28;20495;-67
2021/08/05 01:41:54;;;;;;;6.82;3.75;;;16.10;92.70;;;;;;5064064;28;20096;-67
2021/08/05 01:44:21;;;;;;;5.63;2.92;;;16.10;92.70;;;;;;5060227;28;20029;-68
2021/08/05 01:46:49;;;;;;;6.38;2.42;;;16.10;92.70;;;;;;5050819;28;20028;-67
2021/08/05 01:49:17;;;;;;;5.20;2.15;;;16.00;92.80;;;;;;5063799;28;20588;-67
2021/08/05 01:51:45;;;;;;;3.53;2.90;;;16.10;92.80;;;;;;5066869;28;20402;-67
2021/08/05 01:54:12;;;;;;;3.83;2.47;;;16.10;92.80;;;;;;5062848;28;20097;-68
2021/08/05 01:56:38;;;;;;;4.60;2.40;;;16.10;92.80;;;;;;5062491;28;20024;-67
2021/08/05 01:59:05;;;;;;;5.50;2.22;;;16.10;92.70;;;;;;5062818;28;20017;-67
2021/08/05 02:01:31;;;;;;;5.18;2.38;;;16.10;92.70;;;;;;5064460;28;20028;-68
2021/08/05 02:04:13;;;;;;;4.30;2.20;;;16.10;92.70;;;;;;5064475;28;20442;-67
2021/08/05 02:07:06;;;;;;;6.28;1.65;;;16.00;92.60;;;;;;5063331;28;20017;-67
2021/08/05 02:09:53;;;;;;;4.30;2.63;;;16.10;92.70;;;;;;5051881;28;20399;-68
2021/08/05 02:12:20;;;;;;;8.93;3.17;;;16.10;92.70;;;;;;5061207;28;20476;-68
2021/08/05 02:14:49;;;;;;;4.40;2.50;;;16.10;92.70;;;;;;5062385;28;20353;-68
2021/08/05 02:17:17;;;;;;;2.67;2.47;;;16.00;92.60;;;;;;5066346;28;20119;-68
2021/08/05 02:19:46;;;;;;;6.35;3.15;;;16.00;92.60;;;;;;5061986;28;20048;-68
2021/08/05 02:22:13;;;;;;;4.80;3.00;;;16.00;92.70;;;;;;5064666;28;20076;-68
2021/08/05 02:24:40;;;;;;;3.67;3.30;;;16.00;92.70;;;;;;5066046;28;20016;-69
2021/08/05 02:27:06;;;;;;;27.90;22.08;;;16.00;92.70;;;;;;5063281;28;20036;-68
2021/08/05 02:29:34;;;;;;;24.88;21.58;;;16.00;92.60;;;;;;5064084;28;20058;-69
2021/08/05 02:32:01;;;;;;;13.35;9.43;;;16.00;92.60;;;;;;5063592;28;20027;-69
2021/08/05 02:34:30;;;;;;;5.35;4.45;;;16.10;92.60;;;;;;5060997;28;20016;-68
2021/08/05 02:36:58;;;;;;;5.45;3.58;;;16.10;92.50;;;;;;5059821;28;20016;-68
2021/08/05 02:39:24;;;;;;;7.53;4.70;;;16.10;92.50;;;;;;5064228;28;20033;-68
2021/08/05 02:41:51;;;;;;;5.70;3.83;;;16.00;92.50;;;;;;5061192;28;20459;-67
2021/08/05 02:44:19;;;;;;;5.88;3.95;;;16.00;92.40;;;;;;5059852;28;20095;-67
2021/08/05 02:46:47;;;;;;;6.43;3.60;;;16.10;92.40;;;;;;5066489;28;20021;-68
2021/08/05 02:49:16;;;;;;;7.95;4.47;;;16.10;92.40;;;;;;5064383;28;20024;-67
2021/08/05 02:51:44;;;;;;;9.23;4.55;;;16.00;92.40;;;;;;5061565;28;20063;-68
2021/08/05 02:54:11;;;;;;;6.93;4.45;;;16.00;92.40;;;;;;5061044;28;20369;-70
2021/08/05 02:56:40;;;;;;;9.20;6.18;;;16.00;92.40;;;;;;5063178;28;20438;-69
2021/08/05 02:59:07;;;;;;;11.68;5.82;;;16.00;92.40;;;;;;5061926;28;20055;-68
2021/08/05 03:01:35;;;;;;;15.13;6.88;;;16.00;92.40;;;;;;5063373;28;20017;-68
2021/08/05 03:04:01;;;;;;;11.77;7.75;;;16.00;92.40;;;;;;5062501;28;20037;-68
2021/08/05 03:06:28;;;;;;;11.77;9.13;;;16.00;92.40;;;;;;5059961;28;20025;-68
2021/08/05 03:08:55;;;;;;;14.65;9.80;;;16.00;92.40;;;;;;5064404;28;20025;-68
2021/08/05 03:11:22;;;;;;;12.15;8.15;;;16.00;92.40;;;;;;5062295;28;20570;-68
2021/08/05 03:13:49;;;;;;;10.55;7.13;;;16.00;92.40;;;;;;5063392;28;20139;-68
2021/08/05 03:16:16;;;;;;;11.75;7.38;;;15.90;92.40;;;;;;5062795;28;20016;-68
2021/08/05 03:18:43;;;;;;;8.65;7.13;;;15.90;92.40;;;;;;5058711;28;20077;-68
2021/08/05 03:21:10;;;;;;;6.93;5.05;;;15.90;92.40;;;;;;5060798;28;20154;-68
2021/08/05 03:23:36;;;;;;;6.50;4.95;;;15.90;92.50;;;;;;5061766;28;20047;-68
2021/08/05 03:26:03;;;;;;;9.02;5.03;;;15.90;92.50;;;;;;5064872;28;20024;-68
2021/08/05 03:28:29;;;;;;;7.97;4.45;;;15.90;92.60;;;;;;5060009;28;21053;-68
2021/08/05 03:30:56;;;;;;;5.63;2.95;;;15.90;92.50;;;;;;5061907;28;20017;-68
2021/08/05 03:33:23;;;;;;;5.10;3.45;;;15.80;92.50;;;;;;5058620;28;20466;-68
2021/08/05 03:35:49;;;;;;;4.25;2.88;;;15.80;92.60;;;;;;5060452;28;20070;-68
2021/08/05 03:38:16;;;;;;;6.38;3.45;;;15.80;92.60;;;;;;5063840;28;20016;-68
2021/08/05 03:40:42;;;;;;;3.88;2.78;;;15.80;92.60;;;;;;5059436;28;20009;-68
2021/08/05 03:43:09;;;;;;;5.55;3.75;;;15.90;92.60;;;;;;5061526;28;20108;-68
2021/08/05 03:45:35;;;;;;;6.07;4.10;;;15.90;92.60;;;;;;5059545;28;20024;-68
2021/08/05 03:48:41;;;;;;;4.95;4.25;;;15.90;92.60;;;;;;5045542;28;20020;-68
2021/08/05 03:51:44;;;;;;;4.82;4.25;;;15.90;92.60;;;;;;5058037;28;20522;-68
2021/08/05 03:54:10;;;;;;;10.32;5.10;;;15.90;92.60;;;;;;5040627;28;20037;-68
2021/08/05 03:56:37;;;;;;;7.13;4.28;;;15.90;92.60;;;;;;5063009;28;20028;-70
2021/08/05 03:59:03;;;;;;;5.75;4.53;;;15.90;92.60;;;;;;5058837;28;20023;-68
2021/08/05 04:01:30;;;;;;;5.07;4.60;;;16.00;92.60;;;;;;5061517;28;20013;-67
2021/08/05 04:03:56;;;;;;;10.07;4.63;;;16.00;92.50;;;;;;5058917;28;20024;-68
2021/08/05 04:06:23;;;;;;;7.72;4.30;;;16.00;92.50;;;;;;5051568;28;20046;-68
2021/08/05 04:09:29;;;;;;;30.67;21.90;;;16.00;92.50;;;;;;5058880;28;20100;-68
2021/08/05 04:12:33;;;;;;;34.95;27.20;;;16.00;92.50;;;;;;5055905;28;20029;-67
2021/08/05 04:14:59;;;;;;;14.50;10.48;;;16.00;92.40;;;;;;5040430;28;20039;-70
2021/08/05 04:17:25;;;;;;;9.73;4.97;;;16.00;92.40;;;;;;5060187;28;20372;-69
2021/08/05 04:20:32;;;;;;;7.05;4.45;;;16.00;92.30;;;;;;5058996;28;20039;-69
2021/08/05 04:23:38;;;;;;;6.03;3.90;;;16.00;92.20;;;;;;5057957;28;20497;-70
2021/08/05 04:26:44;;;;;;;10.48;9.18;;;16.00;92.20;;;;;;5061360;28;20033;-73
2021/08/05 04:29:50;;;;;;;10.80;8.80;;;16.00;92.20;;;;;;5057933;28;20081;-71
2021/08/05 04:32:56;;;;;;;32.95;21.33;;;16.00;92.20;;;;;;5064546;28;20431;-72
2021/08/05 04:36:02;;;;;;;12.00;7.75;;;15.90;92.00;;;;;;5061183;28;20570;-72
2021/08/05 04:39:08;;;;;;;7.75;5.03;;;16.00;92.00;;;;;;5062441;28;20028;-72
2021/08/05 04:42:14;;;;;;;7.28;5.00;;;15.90;91.90;;;;;;5058285;28;20068;-72
2021/08/05 04:45:20;;;;;;;7.00;4.68;;;15.90;91.80;;;;;;5058871;28;20021;-69
2021/08/05 04:48:01;;;;;;;9.05;6.22;;;15.90;91.70;;;;;;5061197;28;20864;-75
2021/08/05 04:51:07;;;;;;;8.27;5.47;;;15.90;91.60;;;;;;5061363;28;20468;-72
2021/08/05 04:54:13;;;;;;;10.77;6.28;;;15.90;91.60;;;;;;5061106;28;20079;-67
2021/08/05 04:56:39;;;;;;;10.55;6.93;;;15.90;91.60;;;;;;5058281;28;20467;-70
2021/08/05 04:59:06;;;;;;;6.13;5.53;;;15.90;91.60;;;;;;5057378;28;20481;-71
2021/08/05 05:01:32;;;;;;;8.57;6.03;;;15.90;91.40;;;;;;5065438;28;20025;-70
2021/08/05 05:04:38;;;;;;;6.55;5.95;;;15.80;91.40;;;;;;5039487;28;20068;-70
2021/08/05 05:07:44;;;;;;;7.75;7.00;;;15.80;91.30;;;;;;5036312;28;20021;-70
2021/08/05 05:10:51;;;;;;;9.93;7.40;;;15.80;91.20;;;;;;5054968;28;20029;-70
2021/08/05 05:13:57;;;;;;;8.90;8.00;;;15.80;91.10;;;;;;5051470;28;20049;-70
2021/08/05 05:17:04;;;;;;;12.18;8.20;;;15.70;91.10;;;;;;5052109;28;20021;-71
2021/08/05 05:20:11;;;;;;;8.68;6.18;;;15.70;91.00;;;;;;5053751;28;20044;-71
2021/08/05 05:22:38;;;;;;;7.82;7.03;;;15.70;91.00;;;;;;5050431;28;20072;-71
2021/08/05 05:25:07;;;;;;;11.63;8.35;;;15.60;90.90;;;;;;5053479;28;20064;-72
2021/08/05 05:27:33;;;;;;;12.25;8.07;;;15.60;90.90;;;;;;5052345;28;20588;-71
2021/08/05 05:30:01;;;;;;;11.73;8.02;;;15.50;90.90;;;;;;5057632;28;20025;-70
2021/08/05 05:32:29;;;;;;;11.88;8.07;;;15.50;90.80;;;;;;5056781;28;20040;-71
2021/08/05 05:35:35;;;;;;;12.30;8.57;;;15.50;90.80;;;;;;5063236;28;20114;-71
2021/08/05 05:38:41;;;;;;;8.25;6.93;;;15.50;90.70;;;;;;5063425;28;20472;-71
2021/08/05 05:41:47;;;;;;;10.82;8.57;;;15.40;90.70;;;;;;5065326;28;20492;-70
2021/08/05 05:44:14;;;;;;;13.55;7.38;;;15.30;90.60;;;;;;5062538;28;20029;-71
2021/08/05 05:46:40;;;;;;;15.52;8.50;;;15.30;90.50;;;;;;5066086;28;20383;-71
2021/08/05 05:49:07;;;;;;;14.23;8.05;;;15.30;90.50;;;;;;5048182;28;20017;-70
2021/08/05 05:51:33;;;;;;;10.38;8.57;;;15.30;90.60;;;;;;5063153;28;20044;-71
2021/08/05 05:54:00;;;;;;;11.60;7.45;;;15.20;90.60;;;;;;5064096;28;20041;-70
2021/08/05 05:56:26;;;;;;;11.07;8.15;;;15.20;90.50;;;;;;5068100;28;20021;-70
2021/08/05 05:58:53;;;;;;;9.45;8.10;;;15.20;90.50;;;;;;5063155;28;20020;-71
2021/08/05 06:01:19;;;;;;;12.02;8.77;;;15.20;90.60;;;;;;5061109;28;20051;-70
2021/08/05 06:04:27;;;;;;;13.00;8.18;;;15.20;90.60;;;;;;5060958;28;20512;-71
2021/08/05 06:06:54;;;;;;;13.07;8.90;;;15.10;90.60;;;;;;5056878;28;20060;-70
2021/08/05 06:09:21;;;;;;;16.88;10.05;;;15.10;90.50;;;;;;5061397;28;20028;-72
2021/08/05 06:11:47;;;;;;;20.88;13.43;;;15.10;90.60;;;;;;5064212;28;20021;-70
2021/08/05 06:14:14;;;;;;;55.38;41.85;;;15.10;90.60;;;;;;5064461;28;20594;-71
2021/08/05 06:16:41;;;;;;;23.20;16.98;;;15.10;91.00;;;;;;5059853;28;20017;-71
2021/08/05 06:19:08;;;;;;;25.90;15.30;;;15.20;90.60;;;;;;5061401;28;20028;-71
2021/08/05 06:21:35;;;;;;;33.20;15.75;;;15.10;90.60;;;;;;5062845;28;20021;-72
2021/08/05 06:24:01;;;;;;;28.98;14.98;;;15.10;90.30;;;;;;5063671;28;20319;-71
2021/08/05 06:26:27;;;;;;;27.10;15.63;;;15.10;90.10;;;;;;5057239;28;20547;-71
2021/08/05 06:28:54;;;;;;;32.40;16.75;;;15.20;89.90;;;;;;5059276;28;21057;-71
2021/08/05 06:31:21;;;;;;;38.33;16.70;;;15.20;89.50;;;;;;5062279;28;20479;-70
2021/08/05 06:33:51;;;;;;;35.05;15.82;;;15.10;89.30;;;;;;5059446;28;20033;-72
2021/08/05 06:36:19;;;;;;;34.97;17.17;;;15.10;89.20;;;;;;5062610;28;20380;-72
2021/08/05 06:38:46;;;;;;;28.13;15.90;;;15.10;89.00;;;;;;5056942;28;20016;-72
2021/08/05 06:41:12;;;;;;;20.27;13.15;;;15.10;88.90;;;;;;5060546;28;20464;-72
2021/08/05 06:43:39;;;;;;;29.15;15.05;;;15.10;89.00;;;;;;5058358;28;20032;-72
2021/08/05 06:46:05;;;;;;;26.77;15.52;;;15.10;89.50;;;;;;5057512;28;20052;-71
2021/08/05 06:48:32;;;;;;;19.83;13.35;;;15.10;89.90;;;;;;5059940;28;20540;-72
2021/08/05 06:50:59;;;;;;;18.40;11.18;;;15.20;89.90;;;;;;5060832;28;20465;-72
2021/08/05 06:53:25;;;;;;;18.00;11.10;;;15.20;89.70;;;;;;5062933;28;20035;-72
2021/08/05 06:55:52;;;;;;;17.00;12.80;;;15.20;90.00;;;;;;5057072;28;20050;-71
2021/08/05 06:58:22;;;;;;;27.30;20.63;;;15.30;90.10;;;;;;5056909;28;20118;-71
2021/08/05 07:00:50;;;;;;;31.60;20.83;;;15.30;90.30;;;;;;5058221;28;20028;-71
2021/08/05 07:03:16;;;;;;;17.58;12.77;;;15.30;90.50;;;;;;5062028;28;20451;-70
2021/08/05 07:05:43;;;;;;;15.73;10.55;;;15.30;90.70;;;;;;5059062;28;20066;-71
2021/08/05 07:08:09;;;;;;;15.90;11.45;;;15.40;90.70;;;;;;5056278;28;20025;-71
2021/08/05 07:10:35;;;;;;;43.17;30.13;;;15.40;90.80;;;;;;5057547;28;20032;-70
2021/08/05 07:13:03;;;;;;;20.20;15.80;;;15.40;90.80;;;;;;5058818;28;20025;-70
2021/08/05 07:15:29;;;;;;;17.92;12.52;;;15.50;90.70;;;;;;5062218;28;20016;-71
2021/08/05 07:17:56;;;;;;;20.50;12.68;;;15.50;90.70;;;;;;5059161;28;20383;-70
2021/08/05 07:20:22;;;;;;;22.85;14.23;;;15.50;90.70;;;;;;5061543;28;20641;-71
2021/08/05 07:22:49;;;;;;;17.27;11.73;;;15.50;90.80;;;;;;5054928;28;20017;-71
2021/08/05 07:25:16;;;;;;;21.90;16.13;;;15.60;90.90;;;;;;5058009;28;20025;-71
2021/08/05 07:27:45;;;;;;;21.45;15.32;;;15.60;90.80;;;;;;5061862;28;20540;-71
2021/08/05 07:30:14;;;;;;;20.95;13.95;;;15.60;90.50;;;;;;5059066;28;21387;-72
2021/08/05 07:32:40;;;;;;;23.42;12.75;;;15.60;90.30;;;;;;5059381;28;20085;-72
2021/08/05 07:35:07;;;;;;;19.95;12.05;;;15.70;90.30;;;;;;5058951;28;20028;-72
2021/08/05 07:37:34;;;;;;;21.15;12.90;;;15.70;90.20;;;;;;5059334;28;20928;-71
2021/08/05 07:40:01;;;;;;;21.70;13.48;;;15.70;90.20;;;;;;5060550;28;20114;-72
2021/08/05 07:42:27;;;;;;;21.60;14.82;;;15.70;90.10;;;;;;5062989;28;20032;-72
2021/08/05 07:44:54;;;;;;;59.25;42.53;;;15.70;90.20;;;;;;5058535;28;20077;-71
2021/08/05 07:47:20;;;;;;;35.28;26.33;;;15.80;90.40;;;;;;5060395;28;20190;-71
2021/08/05 07:49:47;;;;;;;25.33;15.82;;;15.90;90.40;;;;;;5058959;28;20034;-72
2021/08/05 07:52:13;;;;;;;30.58;14.00;;;15.90;90.50;;;;;;5055533;28;20408;-72
2021/08/05 07:54:40;;;;;;;27.15;13.20;;;16.00;90.80;;;;;;5059075;28;20546;-72
2021/08/05 07:57:06;;;;;;;24.30;11.98;;;16.00;90.40;;;;;;5057788;28;20789;-72
2021/08/05 07:59:33;;;;;;;25.02;12.65;;;16.10;90.40;;;;;;5062991;28;20017;-72
2021/08/05 08:01:59;;;;;;;16.83;10.45;;;16.10;90.30;;;;;;5058999;28;20013;-71
2021/08/05 08:04:26;;;;;;;17.05;9.18;;;16.10;90.10;;;;;;5057709;28;20070;-71
2021/08/05 08:06:52;;;;;;;19.55;10.48;;;16.20;89.70;;;;;;5063966;28;20086;-73
2021/08/05 08:09:19;;;;;;;12.90;8.98;;;16.20;89.30;;;;;;5059550;28;20033;-74
2021/08/05 08:11:45;;;;;;;13.00;9.55;;;16.30;88.60;;;;;;5059368;28;20471;-70
2021/08/05 08:14:13;;;;;;;14.68;8.75;;;16.30;88.10;;;;;;5058717;28;20033;-72
2021/08/05 08:16:40;;;;;;;13.68;9.55;;;16.30;87.50;;;;;;5054604;28;20492;-70
2021/08/05 08:19:07;;;;;;;18.88;9.43;;;16.40;86.40;;;;;;5058999;28;20024;-70
2021/08/05 08:21:34;;;;;;;16.80;9.30;;;16.40;85.80;;;;;;5060752;28;20475;-71
2021/08/05 08:24:01;;;;;;;24.23;14.25;;;16.50;85.80;;;;;;5059031;28;20020;-71
2021/08/05 08:26:27;;;;;;;22.80;13.27;;;16.50;86.10;;;;;;5059308;28;20706;-71
2021/08/05 08:28:54;;;;;;;18.45;11.40;;;16.50;85.10;;;;;;5058029;28;20104;-71
2021/08/05 08:31:20;;;;;;;18.38;10.52;;;16.60;85.00;;;;;;5059817;28;20471;-71
2021/08/05 08:33:47;;;;;;;16.80;10.23;;;16.60;85.10;;;;;;5060544;28;20033;-71
2021/08/05 08:36:14;;;;;;;20.58;12.13;;;16.60;85.30;;;;;;5057495;28;20088;-71
2021/08/05 08:38:43;;;;;;;22.77;11.77;;;16.70;85.40;;;;;;5062853;28;20021;-72
2021/08/05 08:41:12;;;;;;;21.70;12.48;;;16.80;85.50;;;;;;5057061;28;20017;-71
2021/08/05 08:43:39;;;;;;;22.98;13.38;;;16.80;85.20;;;;;;5059275;28;20013;-71
2021/08/05 08:46:07;;;;;;;32.15;19.10;;;16.90;85.20;;;;;;5060119;28;20402;-71
2021/08/05 08:48:34;;;;;;;18.40;15.25;;;17.00;85.10;;;;;;5054935;28;20016;-71
2021/08/05 08:51:02;;;;;;;22.58;15.88;;;17.10;85.10;;;;;;5061868;28;20025;-72
2021/08/05 08:53:36;;;;;;;17.17;12.93;;;17.10;84.10;;;;;;5059885;28;20043;-72
2021/08/05 08:56:07;;;;;;;14.60;10.00;;;17.20;83.60;;;;;;5056572;28;20066;-72
2021/08/05 08:58:34;;;;;;;16.08;10.38;;;17.20;83.20;;;;;;5059238;28;20379;-72
2021/08/05 09:01:00;;;;;;;24.73;12.95;;;17.30;82.20;;;;;;5057469;28;20651;-72
2021/08/05 09:03:28;;;;;;;24.65;13.98;;;17.30;81.90;;;;;;5058540;28;20040;-72
2021/08/05 09:05:55;;;;;;;19.52;10.50;;;17.40;81.60;;;;;;5045048;28;20110;-66
2021/08/05 09:08:21;;;;;;;24.05;11.25;;;17.50;81.50;;;;;;5062748;28;20122;-71
2021/08/05 09:10:48;;;;;;;21.88;9.75;;;17.50;80.70;;;;;;5062525;28;20418;-71
2021/08/05 09:13:16;;;;;;;13.48;10.00;;;17.50;80.70;;;;;;5065162;28;20075;-67
2021/08/05 09:15:45;;;;;;;15.45;8.77;;;17.50;78.60;;;;;;5063941;28;20056;-71
2021/08/05 09:18:35;;;;;;;15.23;8.85;;;17.60;77.90;;;;;;5060294;28;20077;-71
2021/08/05 09:21:22;;;;;;;17.90;9.15;;;17.70;77.90;;;;;;5062401;28;20041;-71
2021/08/05 09:23:50;;;;;;;23.77;18.35;;;17.70;77.60;;;;;;5063948;28;20008;-71
2021/08/05 09:26:31;;;;;;;19.70;12.73;;;17.80;77.20;;;;;;5060927;28;20075;-70
2021/08/05 09:29:17;;;;;;;19.17;10.60;;;17.90;77.50;;;;;;5062462;28;20471;-72
2021/08/05 09:32:01;;;;;;;20.67;11.82;;;18.00;77.60;;;;;;5061975;28;20025;-70
2021/08/05 09:34:45;;;;;;;18.63;9.88;;;18.10;76.90;;;;;;5062024;28;20514;-72
2021/08/05 09:37:16;;;;;;;17.23;11.13;;;18.10;76.10;;;;;;5061889;28;20036;-70
2021/08/05 09:39:46;;;;;;;20.55;10.48;;;18.20;76.40;;;;;;5062089;28;20024;-70
2021/08/05 09:42:14;;;;;;;18.30;8.90;;;18.30;76.10;;;;;;5061481;28;20052;-70
2021/08/05 09:44:45;;;;;;;15.45;10.23;;;18.40;75.50;;;;;;5060794;28;20111;-69
2021/08/05 09:47:13;;;;;;;54.97;40.80;;;18.50;75.10;;;;;;5060566;28;20032;-69
2021/08/05 09:49:51;;;;;;;31.23;23.42;;;18.60;74.90;;;;;;5059144;28;20104;-70
2021/08/05 09:52:34;;;;;;;21.15;12.57;;;18.70;75.10;;;;;;5063490;28;20074;-70
2021/08/05 09:55:06;;;;;;;16.67;11.55;;;18.70;75.10;;;;;;5062023;28;20052;-69
2021/08/05 09:57:38;;;;;;;15.23;12.10;;;18.80;75.00;;;;;;5058085;28;20094;-68
2021/08/05 10:00:10;;;;;;;18.52;11.45;;;18.80;74.80;;;;;;5063979;28;20009;-69
2021/08/05 10:02:48;;;;;;;18.20;11.38;;;18.90;74.80;;;;;;5060465;28;20111;-69
2021/08/05 10:05:19;;;;;;;14.75;11.77;;;18.90;74.90;;;;;;5062341;28;20028;-69
2021/08/05 10:07:47;;;;;;;15.43;10.88;;;18.90;75.30;;;;;;5061843;28;20419;-69
2021/08/05 10:10:16;;;;;;;14.45;11.90;;;19.00;76.20;;;;;;5062739;28;20071;-69
2021/08/05 10:12:56;;;;;;;23.83;12.02;;;19.00;75.00;;;;;;5062422;28;20555;-69
2021/08/05 10:15:25;;;;;;;19.42;12.48;;;19.10;74.50;;;;;;5058036;28;20454;-69
2021/08/05 10:17:59;;;;;;;22.17;12.18;;;19.10;74.00;;;;;;5058854;28;20032;-69
2021/08/05 10:20:27;;;;;;;16.92;11.93;;;19.10;74.10;;;;;;5058297;28;20430;-69
2021/08/05 10:22:58;;;;;;;19.08;12.15;;;19.20;74.70;;;;;;5068322;28;20025;-69
2021/08/05 10:25:26;;;;;;;19.63;12.75;;;19.30;74.20;;;;;;5061078;28;20020;-69
2021/08/05 10:27:54;;;;;;;13.20;11.30;;;19.40;73.80;;;;;;5062409;28;20031;-70
2021/08/05 10:30:21;;;;;;;15.95;10.20;;;19.40;73.70;;;;;;5062405;28;20025;-70
2021/08/05 10:33:27;;;;;;;16.63;11.48;;;19.50;73.00;;;;;;5056332;28;20087;-70
2021/08/05 10:35:54;;;;;;;14.07;8.23;;;19.60;73.50;;;;;;5065031;28;20151;-70
2021/08/05 10:38:23;;;;;;;11.30;6.03;;;19.60;71.90;;;;;;5065862;28;20025;-70
2021/08/05 10:40:52;;;;;;;15.07;7.25;;;19.70;71.80;;;;;;5063960;28;20021;-71
2021/08/05 10:43:19;;;;;;;13.38;6.60;;;19.70;70.70;;;;;;5063012;28;20029;-71
2021/08/05 10:45:47;;;;;;;10.20;7.07;;;19.80;70.90;;;;;;5064129;28;20503;-69
2021/08/05 10:48:15;;;;;;;12.65;6.32;;;19.80;70.60;;;;;;5061143;28;20420;-69
2021/08/05 10:50:46;;;;;;;11.65;8.02;;;19.70;71.10;;;;;;5064899;28;20044;-70
2021/08/05 10:53:36;;;;;;;10.52;7.75;;;19.70;71.70;;;;;;5062925;28;20523;-70
2021/08/05 10:56:21;;;;;;;13.65;6.47;;;19.70;71.90;;;;;;5062012;28;20053;-69
2021/08/05 10:59:42;;;;;;;13.15;8.00;;;19.70;72.20;;;;;;5064724;28;20020;-70
2021/08/05 11:02:47;;;;;;;13.75;7.63;;;19.60;73.00;;;;;;5065915;28;20408;-69
2021/08/05 11:05:54;;;;;;;12.10;6.03;;;19.60;72.80;;;;;;5062667;28;20019;-69
2021/08/05 11:08:20;;;;;;;;;;;19.50;73.20;;;;;;5052778;28;20040;-70
2021/08/05 11:11:21;;;;;;;10.98;6.60;;;19.50;73.20;;;;;;5062619;28;20308;-72
2021/08/05 11:13:59;;;;;;;13.38;6.82;;;19.70;73.10;;;;;;5063043;28;20047;-71
2021/08/05 11:16:54;;;;;;;8.15;6.00;;;19.60;72.60;;;;;;5061121;28;20104;-74
2021/08/05 11:19:26;;;;;;;11.03;6.17;;;19.70;72.60;;;;;;5061745;28;20024;-73
2021/08/05 11:21:54;;;;;;;10.63;6.90;;;19.80;72.20;;;;;;5063897;28;20012;-74
2021/08/05 11:24:45;;;;;;;11.73;6.82;;;19.90;72.10;;;;;;5065518;28;20017;-68
2021/08/05 11:27:19;;;;;;;9.65;5.70;;;19.90;71.60;;;;;;5063009;28;20028;-69
2021/08/05 11:29:48;;;;;;;12.57;6.07;;;20.00;71.20;;;;;;5063862;28;20504;-69
2021/08/05 11:32:24;;;;;;;6.45;4.63;;;20.00;70.90;;;;;;5064158;28;20034;-72
2021/08/05 11:34:54;;;;;;;10.00;5.05;;;20.00;70.60;;;;;;5062118;28;20468;-68
2021/08/05 11:38:00;;;;;;;7.18;5.13;;;20.00;70.10;;;;;;5060115;28;20020;-67
2021/08/05 11:41:06;;;;;;;13.68;5.57;;;20.10;70.00;;;;;;5058907;28;20650;-68
2021/08/05 11:44:13;;;;;;;9.02;4.47;;;20.10;70.20;;;;;;5057301;28;20077;-68
2021/08/05 11:46:42;;;;;;;10.95;5.85;;;20.10;68.90;;;;;;5055434;28;20017;-68
2021/08/05 11:49:31;;;;;;;9.00;4.60;;;20.30;69.40;;;;;;5058723;28;20023;-68
2021/08/05 11:51:59;;;;;;;7.90;4.88;;;20.20;69.00;;;;;;5054154;28;20049;-68
2021/08/05 11:54:25;;;;;;;11.20;4.82;;;20.20;69.50;;;;;;5056934;28;20047;-68
2021/08/05 11:57:21;;;;;;;10.18;5.70;;;20.30;69.20;;;;;;5056878;28;20032;-68
2021/08/05 11:59:50;;;;;;;12.35;5.65;;;20.40;69.50;;;;;;5038944;28;20037;-68
2021/08/05 12:02:22;;;;;;;12.48;6.40;;;20.40;69.60;;;;;;5056021;28;21053;-68
2021/08/05 12:04:51;;;;;;;11.05;5.47;;;20.50;69.30;;;;;;5052682;28;20021;-68
2021/08/05 12:07:33;;;;;;;9.63;5.63;;;20.50;69.50;;;;;;5041605;28;20079;-68
2021/08/05 12:10:10;;;;;;;7.97;5.03;;;20.60;69.10;;;;;;5054702;28;20036;-69
2021/08/05 12:12:42;;;;;;;13.32;6.75;;;20.60;69.10;;;;;;5051468;28;20538;-70
2021/08/05 12:15:10;;;;;;;11.23;5.72;;;20.60;68.50;;;;;;5056356;28;20025;-69
2021/08/05 12:17:42;;;;;;;13.13;6.32;;;20.60;68.20;;;;;;5051145;28;20017;-69
2021/08/05 12:20:34;;;;;;;10.10;5.85;;;20.50;68.00;;;;;;5054946;28;20025;-69
2021/08/05 12:23:04;;;;;;;9.95;6.65;;;20.60;69.20;;;;;;5044760;28;20041;-70
2021/08/05 12:25:46;;;;;;;14.13;6.15;;;20.60;67.80;;;;;;5054976;28;20123;-70
2021/08/05 12:28:18;;;;;;;13.27;7.53;;;20.70;67.90;;;;;;5050079;28;20033;-70
2021/08/05 12:31:24;;;;;;;10.73;6.25;;;20.70;67.70;;;;;;5056883;28;20016;-69
2021/08/05 12:34:30;;;;;;;8.40;6.85;;;20.80;67.20;;;;;;5051938;28;20029;-70
2021/08/05 12:37:36;;;;;;;12.70;6.72;;;20.70;67.10;;;;;;5058501;28;20021;-67
2021/08/05 12:40:48;;;;;;;10.63;6.60;;;20.70;67.40;;;;;;5053890;28;20017;-69
2021/08/05 12:43:54;;;;;;;8.75;6.20;;;20.70;66.50;;;;;;5052798;28;20024;-69
2021/08/05 12:47:04;;;;;;;11.43;6.53;;;20.70;66.90;;;;;;5052482;28;20040;-69
2021/08/05 12:50:10;;;;;;;10.60;5.93;;;20.80;67.70;;;;;;5051120;28;20422;-69
2021/08/05 12:53:19;;;;;;;14.85;5.32;;;20.80;67.60;;;;;;5050792;28;20045;-70
2021/08/05 12:56:25;;;;;;;12.23;6.63;;;20.80;66.70;;;;;;5052836;28;20032;-69
2021/08/05 12:59:38;;;;;;;10.30;6.05;;;20.80;67.10;;;;;;5058351;28;20728;-69
2021/08/05 13:02:49;;;;;;;9.43;6.28;;;20.80;67.10;;;;;;5052252;28;20033;-69
2021/08/05 13:05:56;;;;;;;10.10;5.50;;;20.80;66.90;;;;;;5032919;28;20032;-69
2021/08/05 13:09:08;;;;;;;14.07;6.13;;;20.80;67.00;;;;;;5053592;28;20519;-69
2021/08/05 13:12:14;;;;;;;10.63;6.05;;;20.80;66.80;;;;;;5054444;28;20032;-69
2021/08/05 13:15:20;;;;;;;17.38;7.10;;;20.90;66.90;;;;;;5056609;28;20377;-69
2021/08/05 13:18:26;;;;;;;10.20;5.63;;;20.90;66.90;;;;;;5054178;28;20020;-70
2021/08/05 13:21:32;;;;;;;9.93;6.22;;;20.90;67.00;;;;;;5057624;28;20032;-69